sensor_id;sensor_type;location;lat;lon;timestamp;P1;durP1;ratioP1;P2;durP2;ratioP2
19810;SDS011;10065;49.632;8.346;2023-05-21T05:17:42;19.03;;;13.70;;
19810;SDS011;10065;49.632;8.346;2023-05-21T05:20:56;17.40;;;13.53;;
19810;SDS011;10065;49.632;8.346;2023-05-21T05:28:10;18.57;;;14.30;;
19810;SDS011;10065;49.632;8.346;2023-05-21T05:31:43;21.97;;;13.83;;
19810;SDS011;10065;49.632;8.346;2023-05-21T05:39:02;20.50;;;13.90;;
19810;SDS011;10065;49.632;8.346;2023-05-21T08:36:48;16.13;;;12.93;;
19810;SDS011;10065;49.632;8.346;2023-05-21T08:39:16;16.23;;;13.00;;
19810;SDS011;10065;49.632;8.346;2023-05-21T17:00:59;12.55;;;7.65;;
19810;SDS011;10065;49.632;8.346;2023-05-21T17:03:27;9.32;;;7.65;;
19810;SDS011;10065;49.632;8.346;2023-05-21T17:05:57;9.30;;;8.13;;
19810;SDS011;10065;49.632;8.346;2023-05-21T17:08:25;10.70;;;8.18;;
19810;SDS011;10065;49.632;8.346;2023-05-21T17:10:53;9.40;;;7.30;;
19810;SDS011;10065;49.632;8.346;2023-05-21T17:13:21;9.68;;;7.65;;
19810;SDS011;10065;49.632;8.346;2023-05-21T17:15:49;10.13;;;7.60;;
19810;SDS011;10065;49.632;8.346;2023-05-21T17:18:18;9.40;;;6.95;;
19810;SDS011;10065;49.632;8.346;2023-05-21T17:20:46;12.60;;;8.32;;
19810;SDS011;10065;49.632;8.346;2023-05-21T17:23:14;10.40;;;7.88;;
19810;SDS011;10065;49.632;8.346;2023-05-21T17:25:42;11.48;;;7.13;;
19810;SDS011;10065;49.632;8.346;2023-05-21T17:28:09;16.02;;;8.60;;
19810;SDS011;10065;49.632;8.346;2023-05-21T17:30:37;10.05;;;8.15;;
19810;SDS011;10065;49.632;8.346;2023-05-21T17:33:05;13.63;;;8.27;;
19810;SDS011;10065;49.632;8.346;2023-05-21T17:35:34;13.43;;;8.65;;
19810;SDS011;10065;49.632;8.346;2023-05-21T17:38:02;12.93;;;9.20;;
19810;SDS011;10065;49.632;8.346;2023-05-21T17:40:30;13.32;;;8.57;;
19810;SDS011;10065;49.632;8.346;2023-05-21T17:42:57;11.00;;;8.20;;
19810;SDS011;10065;49.632;8.346;2023-05-21T17:45:25;9.05;;;7.53;;
19810;SDS011;10065;49.632;8.346;2023-05-21T17:47:53;18.33;;;8.95;;
19810;SDS011;10065;49.632;8.346;2023-05-21T17:50:25;10.07;;;7.60;;
19810;SDS011;10065;49.632;8.346;2023-05-21T17:52:54;9.35;;;8.05;;
19810;SDS011;10065;49.632;8.346;2023-05-21T17:55:22;10.43;;;8.02;;
19810;SDS011;10065;49.632;8.346;2023-05-21T17:57:50;10.43;;;8.43;;
19810;SDS011;10065;49.632;8.346;2023-05-21T18:00:18;11.18;;;8.57;;
19810;SDS011;10065;49.632;8.346;2023-05-21T18:02:46;9.70;;;7.95;;
19810;SDS011;10065;49.632;8.346;2023-05-21T18:05:14;15.70;;;8.82;;
19810;SDS011;10065;49.632;8.346;2023-05-21T18:07:42;11.43;;;7.97;;
19810;SDS011;10065;49.632;8.346;2023-05-21T18:10:11;14.00;;;8.23;;
19810;SDS011;10065;49.632;8.346;2023-05-21T18:12:40;10.52;;;7.82;;
19810;SDS011;10065;49.632;8.346;2023-05-21T18:15:09;10.57;;;8.02;;
19810;SDS011;10065;49.632;8.346;2023-05-21T18:17:36;14.32;;;8.23;;
19810;SDS011;10065;49.632;8.346;2023-05-21T18:20:05;12.43;;;7.35;;
19810;SDS011;10065;49.632;8.346;2023-05-21T18:25:12;12.57;;;9.05;;
19810;SDS011;10065;49.632;8.346;2023-05-21T18:27:40;9.88;;;7.72;;
19810;SDS011;10065;49.632;8.346;2023-05-21T18:30:08;9.38;;;8.05;;
19810;SDS011;10065;49.632;8.346;2023-05-21T18:32:36;11.13;;;7.95;;
19810;SDS011;10065;49.632;8.346;2023-05-21T18:35:05;9.30;;;7.93;;
19810;SDS011;10065;49.632;8.346;2023-05-21T18:37:33;16.13;;;9.07;;
19810;SDS011;10065;49.632;8.346;2023-05-21T18:40:02;10.15;;;7.93;;
19810;SDS011;10065;49.632;8.346;2023-05-21T18:42:33;11.02;;;8.25;;
19810;SDS011;10065;49.632;8.346;2023-05-21T18:45:04;10.13;;;7.80;;
19810;SDS011;10065;49.632;8.346;2023-05-21T18:47:32;11.40;;;8.32;;
19810;SDS011;10065;49.632;8.346;2023-05-21T18:50:00;13.13;;;8.57;;
19810;SDS011;10065;49.632;8.346;2023-05-21T18:52:28;10.27;;;8.40;;
19810;SDS011;10065;49.632;8.346;2023-05-21T18:54:56;13.55;;;8.90;;
19810;SDS011;10065;49.632;8.346;2023-05-21T18:57:23;12.27;;;8.63;;
19810;SDS011;10065;49.632;8.346;2023-05-21T18:59:52;13.05;;;9.18;;
19810;SDS011;10065;49.632;8.346;2023-05-21T19:02:20;13.13;;;9.27;;
19810;SDS011;10065;49.632;8.346;2023-05-21T19:04:49;11.43;;;9.23;;
19810;SDS011;10065;49.632;8.346;2023-05-21T19:07:17;12.50;;;9.23;;
19810;SDS011;10065;49.632;8.346;2023-05-21T19:09:45;15.73;;;10.20;;
19810;SDS011;10065;49.632;8.346;2023-05-21T19:12:13;14.85;;;9.80;;
19810;SDS011;10065;49.632;8.346;2023-05-21T19:14:41;12.35;;;10.00;;
19810;SDS011;10065;49.632;8.346;2023-05-21T19:17:11;18.00;;;10.55;;
19810;SDS011;10065;49.632;8.346;2023-05-21T19:19:39;11.90;;;8.93;;
19810;SDS011;10065;49.632;8.346;2023-05-21T19:22:07;13.10;;;9.57;;
19810;SDS011;10065;49.632;8.346;2023-05-21T19:24:35;15.77;;;9.60;;
19810;SDS011;10065;49.632;8.346;2023-05-21T19:27:03;15.10;;;10.57;;
19810;SDS011;10065;49.632;8.346;2023-05-21T19:29:31;12.35;;;9.98;;
19810;SDS011;10065;49.632;8.346;2023-05-21T19:31:59;13.95;;;10.32;;
19810;SDS011;10065;49.632;8.346;2023-05-21T19:34:28;16.60;;;12.50;;
19810;SDS011;10065;49.632;8.346;2023-05-21T19:36:56;20.23;;;12.10;;
19810;SDS011;10065;49.632;8.346;2023-05-21T19:39:23;14.82;;;11.32;;
19810;SDS011;10065;49.632;8.346;2023-05-21T19:41:51;15.65;;;10.77;;
19810;SDS011;10065;49.632;8.346;2023-05-21T19:44:19;16.92;;;10.38;;
19810;SDS011;10065;49.632;8.346;2023-05-21T19:46:46;16.50;;;9.82;;
19810;SDS011;10065;49.632;8.346;2023-05-21T19:49:15;16.95;;;10.40;;
19810;SDS011;10065;49.632;8.346;2023-05-21T19:51:46;15.30;;;9.63;;
19810;SDS011;10065;49.632;8.346;2023-05-21T19:54:14;17.83;;;10.65;;
19810;SDS011;10065;49.632;8.346;2023-05-21T19:56:43;14.85;;;10.05;;
19810;SDS011;10065;49.632;8.346;2023-05-21T19:59:11;13.77;;;9.52;;
19810;SDS011;10065;49.632;8.346;2023-05-21T20:01:39;15.85;;;10.48;;
19810;SDS011;10065;49.632;8.346;2023-05-21T20:04:08;13.18;;;10.05;;
19810;SDS011;10065;49.632;8.346;2023-05-21T20:06:36;13.57;;;9.82;;
19810;SDS011;10065;49.632;8.346;2023-05-21T20:09:07;14.00;;;8.93;;
19810;SDS011;10065;49.632;8.346;2023-05-21T20:11:38;11.05;;;8.77;;
19810;SDS011;10065;49.632;8.346;2023-05-21T20:14:07;12.70;;;8.82;;
19810;SDS011;10065;49.632;8.346;2023-05-21T20:16:35;12.18;;;8.57;;
19810;SDS011;10065;49.632;8.346;2023-05-21T20:19:03;14.07;;;9.05;;
19810;SDS011;10065;49.632;8.346;2023-05-21T20:21:31;11.93;;;9.18;;
19810;SDS011;10065;49.632;8.346;2023-05-21T20:23:58;13.07;;;9.13;;
19810;SDS011;10065;49.632;8.346;2023-05-21T20:26:29;14.20;;;9.68;;
19810;SDS011;10065;49.632;8.346;2023-05-21T20:29:00;15.48;;;9.43;;
19810;SDS011;10065;49.632;8.346;2023-05-21T20:31:27;18.92;;;10.73;;
19810;SDS011;10065;49.632;8.346;2023-05-21T20:33:56;15.00;;;10.45;;
19810;SDS011;10065;49.632;8.346;2023-05-21T20:36:26;18.52;;;12.52;;
19810;SDS011;10065;49.632;8.346;2023-05-21T20:38:55;13.55;;;10.77;;
19810;SDS011;10065;49.632;8.346;2023-05-21T20:41:26;11.93;;;9.35;;
19810;SDS011;10065;49.632;8.346;2023-05-21T20:44:02;12.35;;;9.38;;
19810;SDS011;10065;49.632;8.346;2023-05-21T20:46:31;12.20;;;9.30;;
19810;SDS011;10065;49.632;8.346;2023-05-21T20:48:59;14.00;;;10.90;;
19810;SDS011;10065;49.632;8.346;2023-05-21T20:51:27;12.80;;;10.57;;
19810;SDS011;10065;49.632;8.346;2023-05-21T20:53:54;17.27;;;10.68;;
19810;SDS011;10065;49.632;8.346;2023-05-21T20:56:22;11.80;;;9.97;;
19810;SDS011;10065;49.632;8.346;2023-05-21T20:59:08;12.85;;;10.13;;
19810;SDS011;10065;49.632;8.346;2023-05-21T21:01:37;13.00;;;10.40;;
19810;SDS011;10065;49.632;8.346;2023-05-21T21:04:06;11.93;;;9.98;;
19810;SDS011;10065;49.632;8.346;2023-05-21T21:06:34;12.98;;;9.88;;
19810;SDS011;10065;49.632;8.346;2023-05-21T21:09:03;12.95;;;10.32;;
19810;SDS011;10065;49.632;8.346;2023-05-21T21:11:31;12.38;;;10.20;;
19810;SDS011;10065;49.632;8.346;2023-05-21T21:14:02;12.30;;;9.93;;
19810;SDS011;10065;49.632;8.346;2023-05-21T21:16:46;11.95;;;9.80;;
19810;SDS011;10065;49.632;8.346;2023-05-21T21:19:16;14.93;;;10.27;;
19810;SDS011;10065;49.632;8.346;2023-05-21T21:21:45;13.52;;;9.75;;
19810;SDS011;10065;49.632;8.346;2023-05-21T21:24:13;15.17;;;9.77;;
19810;SDS011;10065;49.632;8.346;2023-05-21T21:26:42;15.13;;;10.37;;
19810;SDS011;10065;49.632;8.346;2023-05-21T21:29:09;14.50;;;10.05;;
19810;SDS011;10065;49.632;8.346;2023-05-21T21:31:37;11.80;;;9.07;;
19810;SDS011;10065;49.632;8.346;2023-05-21T21:34:06;17.58;;;9.43;;
19810;SDS011;10065;49.632;8.346;2023-05-21T21:36:34;12.40;;;9.80;;
19810;SDS011;10065;49.632;8.346;2023-05-21T21:39:02;12.43;;;9.13;;
19810;SDS011;10065;49.632;8.346;2023-05-21T21:41:30;11.80;;;8.18;;
19810;SDS011;10065;49.632;8.346;2023-05-21T21:43:57;12.97;;;9.97;;
19810;SDS011;10065;49.632;8.346;2023-05-21T21:46:25;12.13;;;9.33;;
19810;SDS011;10065;49.632;8.346;2023-05-21T21:48:53;13.70;;;9.17;;
19810;SDS011;10065;49.632;8.346;2023-05-21T21:51:22;11.27;;;9.07;;
19810;SDS011;10065;49.632;8.346;2023-05-21T21:53:50;12.40;;;9.40;;
19810;SDS011;10065;49.632;8.346;2023-05-21T21:56:18;14.30;;;9.90;;
19810;SDS011;10065;49.632;8.346;2023-05-21T21:58:45;13.23;;;9.57;;
19810;SDS011;10065;49.632;8.346;2023-05-21T22:01:13;12.50;;;9.73;;
19810;SDS011;10065;49.632;8.346;2023-05-21T22:03:41;10.73;;;8.97;;
19810;SDS011;10065;49.632;8.346;2023-05-21T22:06:09;14.27;;;8.67;;
19810;SDS011;10065;49.632;8.346;2023-05-21T22:08:38;12.40;;;8.67;;
19810;SDS011;10065;49.632;8.346;2023-05-21T22:11:08;12.03;;;9.00;;
19810;SDS011;10065;49.632;8.346;2023-05-21T22:13:36;15.53;;;9.13;;
19810;SDS011;10065;49.632;8.346;2023-05-21T22:16:06;12.07;;;8.90;;
19810;SDS011;10065;49.632;8.346;2023-05-21T22:18:37;13.70;;;9.10;;
19810;SDS011;10065;49.632;8.346;2023-05-21T22:21:07;11.27;;;8.70;;
19810;SDS011;10065;49.632;8.346;2023-05-21T22:23:37;11.50;;;8.43;;
19810;SDS011;10065;49.632;8.346;2023-05-21T22:26:05;11.93;;;9.00;;
19810;SDS011;10065;49.632;8.346;2023-05-21T22:28:33;12.30;;;8.80;;
19810;SDS011;10065;49.632;8.346;2023-05-21T22:31:01;11.60;;;8.30;;
19810;SDS011;10065;49.632;8.346;2023-05-21T22:33:29;13.80;;;9.03;;
19810;SDS011;10065;49.632;8.346;2023-05-21T22:35:57;11.00;;;8.60;;
19810;SDS011;10065;49.632;8.346;2023-05-21T22:38:24;13.70;;;8.53;;
19810;SDS011;10065;49.632;8.346;2023-05-21T22:40:53;10.30;;;8.43;;
19810;SDS011;10065;49.632;8.346;2023-05-21T22:43:21;11.13;;;8.50;;
19810;SDS011;10065;49.632;8.346;2023-05-21T22:45:49;10.73;;;8.77;;
19810;SDS011;10065;49.632;8.346;2023-05-21T22:48:17;15.17;;;9.47;;
19810;SDS011;10065;49.632;8.346;2023-05-21T22:50:55;13.23;;;8.53;;
19810;SDS011;10065;49.632;8.346;2023-05-21T22:53:23;11.33;;;8.90;;
19810;SDS011;10065;49.632;8.346;2023-05-21T22:55:51;15.67;;;9.90;;
19810;SDS011;10065;49.632;8.346;2023-05-21T22:58:20;11.30;;;8.63;;
19810;SDS011;10065;49.632;8.346;2023-05-21T23:00:48;11.57;;;9.20;;
19810;SDS011;10065;49.632;8.346;2023-05-21T23:03:16;12.03;;;10.13;;
19810;SDS011;10065;49.632;8.346;2023-05-21T23:05:43;15.90;;;10.10;;
19810;SDS011;10065;49.632;8.346;2023-05-21T23:08:12;15.70;;;9.53;;
19810;SDS011;10065;49.632;8.346;2023-05-21T23:10:39;11.20;;;9.07;;
19810;SDS011;10065;49.632;8.346;2023-05-21T23:13:07;12.37;;;9.63;;
19810;SDS011;10065;49.632;8.346;2023-05-21T23:15:36;13.67;;;9.23;;
19810;SDS011;10065;49.632;8.346;2023-05-21T23:18:04;12.77;;;9.93;;
19810;SDS011;10065;49.632;8.346;2023-05-21T23:20:34;13.50;;;9.70;;
19810;SDS011;10065;49.632;8.346;2023-05-21T23:23:02;11.63;;;9.37;;
19810;SDS011;10065;49.632;8.346;2023-05-21T23:25:30;11.37;;;9.67;;
19810;SDS011;10065;49.632;8.346;2023-05-21T23:27:57;13.17;;;10.43;;
19810;SDS011;10065;49.632;8.346;2023-05-21T23:30:25;15.97;;;10.03;;
19810;SDS011;10065;49.632;8.346;2023-05-21T23:32:54;13.27;;;10.47;;
19810;SDS011;10065;49.632;8.346;2023-05-21T23:35:22;13.83;;;11.00;;
19810;SDS011;10065;49.632;8.346;2023-05-21T23:37:50;16.97;;;10.37;;
19810;SDS011;10065;49.632;8.346;2023-05-21T23:40:17;17.77;;;11.23;;
19810;SDS011;10065;49.632;8.346;2023-05-21T23:42:45;15.87;;;10.67;;
19810;SDS011;10065;49.632;8.346;2023-05-21T23:45:13;13.17;;;10.67;;
19810;SDS011;10065;49.632;8.346;2023-05-21T23:47:42;14.37;;;10.70;;
19810;SDS011;10065;49.632;8.346;2023-05-21T23:50:11;14.33;;;10.90;;
19810;SDS011;10065;49.632;8.346;2023-05-21T23:52:39;14.83;;;11.33;;
19810;SDS011;10065;49.632;8.346;2023-05-21T23:55:07;13.23;;;10.40;;
19810;SDS011;10065;49.632;8.346;2023-05-21T23:57:37;15.80;;;10.73;;
